createdAt,value
2017-08-22T00:00:01.093Z,10.87
2017-08-22T00:02:28.520Z,9.93
2017-08-22T00:04:55.951Z,7.73
2017-08-22T00:07:23.384Z,11.30
2017-08-22T00:09:50.807Z,15.40
2017-08-22T00:12:18.243Z,19.60
2017-08-22T00:14:45.677Z,12.70
2017-08-22T00:17:13.118Z,10.87
2017-08-22T00:19:40.549Z,12.20
2017-08-22T00:22:07.976Z,9.10
2017-08-22T00:24:35.417Z,7.93
2017-08-22T00:27:02.845Z,7.80
2017-08-22T00:29:30.278Z,10.67
2017-08-22T00:31:57.708Z,8.80
2017-08-22T00:34:25.141Z,13.60
2017-08-22T00:36:52.588Z,9.00
2017-08-22T00:39:20.008Z,14.30
2017-08-22T00:41:48.389Z,10.50
2017-08-22T00:44:15.816Z,8.50
2017-08-22T00:46:43.247Z,9.00
2017-08-22T00:49:10.671Z,11.30
2017-08-22T00:51:38.127Z,8.17
2017-08-22T00:54:05.548Z,9.80
2017-08-22T00:56:32.984Z,14.30
2017-08-22T00:59:00.423Z,9.53
2017-08-22T01:01:27.852Z,9.17
2017-08-22T01:03:55.279Z,12.43
2017-08-22T01:06:22.726Z,9.83
2017-08-22T01:08:50.148Z,8.13
2017-08-22T01:11:17.586Z,13.67
2017-08-22T01:13:45.013Z,13.87
2017-08-22T01:16:12.482Z,10.97
2017-08-22T01:18:39.908Z,12.13
2017-08-22T01:21:07.340Z,9.70
2017-08-22T01:23:34.779Z,11.00
2017-08-22T01:26:02.213Z,12.87
2017-08-22T01:28:29.645Z,10.93
2017-08-22T01:30:57.080Z,11.63
2017-08-22T01:33:24.526Z,13.93
2017-08-22T01:35:51.949Z,13.43
2017-08-22T01:38:19.380Z,9.63
2017-08-22T01:40:46.816Z,10.40
2017-08-22T01:43:14.253Z,15.27
2017-08-22T01:45:41.697Z,11.23
2017-08-22T01:48:09.134Z,9.47
2017-08-22T01:50:36.570Z,12.80
2017-08-22T01:53:04.001Z,10.20
2017-08-22T01:55:31.429Z,9.63
2017-08-22T01:57:58.872Z,12.30
2017-08-22T02:00:26.388Z,13.67
2017-08-22T02:02:53.830Z,10.77
2017-08-22T02:05:21.279Z,12.57
2017-08-22T02:07:48.713Z,13.50
2017-08-22T02:10:16.149Z,12.40
2017-08-22T02:12:43.581Z,9.20
2017-08-22T02:15:11.014Z,14.90
2017-08-22T02:17:38.455Z,16.93
2017-08-22T02:20:06.970Z,11.73
2017-08-22T02:22:34.404Z,14.43
2017-08-22T02:25:01.841Z,10.00
2017-08-22T02:27:29.293Z,10.00
2017-08-22T02:29:56.716Z,13.57
2017-08-22T02:32:24.150Z,12.30
2017-08-22T02:34:51.581Z,18.80
2017-08-22T02:37:19.023Z,15.50
2017-08-22T02:39:46.482Z,15.27
2017-08-22T02:42:14.172Z,11.90
2017-08-22T02:44:41.614Z,11.83
2017-08-22T02:47:09.048Z,12.27
2017-08-22T02:49:36.507Z,12.70
2017-08-22T02:52:03.940Z,16.63
2017-08-22T02:54:31.390Z,16.90
2017-08-22T02:56:58.829Z,10.60
2017-08-22T02:59:26.266Z,13.70
2017-08-22T03:01:53.706Z,12.50
2017-08-22T03:04:21.165Z,18.00
2017-08-22T03:06:48.600Z,14.60
2017-08-22T03:09:16.043Z,14.00
2017-08-22T03:11:43.474Z,11.80
2017-08-22T03:14:10.914Z,11.50
2017-08-22T03:16:39.404Z,14.00
2017-08-22T03:19:06.849Z,16.80
2017-08-22T03:21:34.289Z,14.60
2017-08-22T03:24:01.732Z,14.83
2017-08-22T03:26:29.156Z,11.87
2017-08-22T03:28:56.598Z,12.47
2017-08-22T03:31:24.030Z,12.23
2017-08-22T03:33:51.478Z,13.53
2017-08-22T03:36:18.914Z,13.30
2017-08-22T03:38:46.354Z,12.30
2017-08-22T03:41:13.793Z,14.10
2017-08-22T03:43:41.225Z,12.63
2017-08-22T03:46:08.669Z,18.07
2017-08-22T03:48:36.105Z,12.13
2017-08-22T03:51:03.559Z,12.20
2017-08-22T03:53:30.989Z,16.00
2017-08-22T03:55:58.437Z,13.07
2017-08-22T03:58:26.069Z,14.43
2017-08-22T04:00:53.489Z,15.07
2017-08-22T04:03:20.937Z,12.73
2017-08-22T04:05:48.382Z,12.90
2017-08-22T04:08:15.820Z,11.90
2017-08-22T04:10:43.249Z,14.63
2017-08-22T04:13:10.677Z,14.13
2017-08-22T04:15:38.122Z,17.73
2017-08-22T04:18:05.552Z,14.53
2017-08-22T04:20:33.005Z,12.53
2017-08-22T04:23:00.465Z,19.03
2017-08-22T04:25:27.888Z,13.77
2017-08-22T04:27:55.325Z,18.00
2017-08-22T04:30:22.773Z,14.73
2017-08-22T04:32:50.211Z,18.80
2017-08-22T04:35:17.690Z,16.03
2017-08-22T04:37:45.109Z,13.07
2017-08-22T04:40:12.537Z,15.27
2017-08-22T04:42:39.993Z,12.97
2017-08-22T04:45:07.523Z,18.57
2017-08-22T04:47:35.080Z,11.10
2017-08-22T04:50:02.577Z,22.37
2017-08-22T04:52:31.068Z,12.47
2017-08-22T04:54:58.507Z,14.17
2017-08-22T04:57:25.953Z,15.93
2017-08-22T04:59:53.382Z,14.20
2017-08-22T05:02:20.833Z,17.43
2017-08-22T05:04:48.341Z,16.33
2017-08-22T05:07:15.784Z,17.00
2017-08-22T05:09:43.225Z,14.53
2017-08-22T05:12:17.982Z,12.60
2017-08-22T05:14:46.520Z,13.30
2017-08-22T05:17:13.963Z,15.00
2017-08-22T05:19:41.394Z,16.53
2017-08-22T05:22:08.849Z,17.50
2017-08-22T05:24:36.293Z,16.77
2017-08-22T05:27:03.734Z,17.83
2017-08-22T05:29:31.164Z,15.20
2017-08-22T05:31:58.603Z,16.10
2017-08-22T05:34:26.041Z,18.57
2017-08-22T05:36:53.500Z,16.53
2017-08-22T05:39:20.933Z,16.87
2017-08-22T05:41:48.380Z,14.50
2017-08-22T05:44:15.822Z,17.80
2017-08-22T05:46:43.253Z,14.20
2017-08-22T05:49:10.804Z,18.03
2017-08-22T05:51:38.301Z,16.10
2017-08-22T05:54:05.751Z,16.97
2017-08-22T05:56:33.181Z,18.00
2017-08-22T05:59:00.632Z,19.03
2017-08-22T06:01:34.360Z,16.43
2017-08-22T06:04:01.805Z,16.00
2017-08-22T06:06:29.232Z,12.40
2017-08-22T06:08:56.672Z,14.13
2017-08-22T06:11:24.109Z,16.37
2017-08-22T06:13:51.608Z,15.00
2017-08-22T06:16:19.036Z,18.30
2017-08-22T06:18:46.485Z,15.20
2017-08-22T06:21:13.924Z,14.10
2017-08-22T06:23:41.365Z,16.70
2017-08-22T06:26:08.804Z,15.50
2017-08-22T06:28:36.240Z,14.73
2017-08-22T06:31:03.672Z,13.60
2017-08-22T06:33:31.114Z,14.40
2017-08-22T06:35:58.550Z,13.13
2017-08-22T06:38:25.975Z,10.13
2017-08-22T06:40:53.417Z,13.20
2017-08-22T06:43:20.848Z,11.80
2017-08-22T06:45:48.294Z,15.03
2017-08-22T06:48:15.721Z,13.77
2017-08-22T06:50:43.158Z,13.50
2017-08-22T06:53:10.588Z,10.60
2017-08-22T06:55:39.066Z,11.50
2017-08-22T06:58:06.492Z,12.13
2017-08-22T07:00:33.930Z,13.73
2017-08-22T07:03:01.357Z,9.77
2017-08-22T07:05:28.789Z,10.90
2017-08-22T07:07:56.264Z,11.10
2017-08-22T07:10:23.696Z,13.90
2017-08-22T07:12:51.173Z,9.93
2017-08-22T07:15:18.643Z,11.40
2017-08-22T07:17:46.056Z,6.73
2017-08-22T07:20:13.492Z,7.80
2017-08-22T07:22:40.940Z,6.80
2017-08-22T07:25:08.360Z,7.13
2017-08-22T07:27:35.784Z,7.13
2017-08-22T07:30:03.220Z,7.50
2017-08-22T07:32:30.652Z,7.53
2017-08-22T07:34:58.102Z,9.90
2017-08-22T07:37:25.529Z,5.20
2017-08-22T07:39:52.972Z,5.37
2017-08-22T07:42:20.392Z,9.43
2017-08-22T07:44:47.824Z,11.50
2017-08-22T07:47:15.257Z,4.17
2017-08-22T07:49:42.700Z,5.37
2017-08-22T07:52:10.137Z,6.53
2017-08-22T07:54:37.576Z,4.30
2017-08-22T07:57:06.008Z,5.93
2017-08-22T07:59:33.433Z,5.47
2017-08-22T08:02:00.924Z,6.80
2017-08-22T08:04:28.365Z,4.53
2017-08-22T08:06:55.802Z,6.97
2017-08-22T08:09:23.243Z,6.70
2017-08-22T08:11:50.674Z,8.27
2017-08-22T08:14:18.097Z,7.63
2017-08-22T08:16:45.544Z,5.90
2017-08-22T08:19:12.969Z,10.40
2017-08-22T08:21:40.400Z,4.97
2017-08-22T08:24:07.920Z,8.10
2017-08-22T08:26:35.352Z,5.60
2017-08-22T08:29:02.791Z,5.13
2017-08-22T08:31:30.377Z,11.73
2017-08-22T08:33:57.804Z,5.17
2017-08-22T08:36:25.301Z,6.00
2017-08-22T08:38:52.728Z,7.03
2017-08-22T08:41:20.156Z,8.93
2017-08-22T08:43:47.585Z,7.40
2017-08-22T08:46:15.013Z,6.23
2017-08-22T08:48:42.457Z,11.57
2017-08-22T08:51:09.889Z,8.93
2017-08-22T08:53:37.318Z,9.20
2017-08-22T08:56:04.745Z,5.27
2017-08-22T08:58:32.183Z,8.43
2017-08-22T09:00:59.614Z,6.07
2017-08-22T09:03:27.042Z,6.30
2017-08-22T09:05:54.465Z,6.83
2017-08-22T09:08:21.904Z,7.97
2017-08-22T09:10:49.342Z,6.77
2017-08-22T09:13:16.780Z,5.97
2017-08-22T09:15:44.211Z,7.83
2017-08-22T09:18:11.642Z,14.43
2017-08-22T09:20:39.090Z,4.37
2017-08-22T09:23:06.513Z,5.43
2017-08-22T09:25:33.945Z,7.87
2017-08-22T09:28:01.378Z,6.30
2017-08-22T09:30:28.809Z,7.20
2017-08-22T09:32:56.245Z,5.90
2017-08-22T09:35:23.678Z,7.83
2017-08-22T09:37:51.109Z,5.10
2017-08-22T09:40:18.540Z,6.10
2017-08-22T09:42:45.973Z,6.80
2017-08-22T09:45:13.405Z,5.80
2017-08-22T09:47:40.846Z,6.40
2017-08-22T09:50:09.245Z,11.37
2017-08-22T09:52:36.681Z,6.27
2017-08-22T09:55:04.113Z,6.03
2017-08-22T09:57:31.604Z,7.63
2017-08-22T09:59:59.068Z,7.80
2017-08-22T10:02:26.517Z,5.30
2017-08-22T10:04:53.948Z,4.27
2017-08-22T10:07:21.381Z,2.73
2017-08-22T10:09:48.816Z,5.03
2017-08-22T10:12:16.243Z,8.97
2017-08-22T10:14:43.678Z,3.03
2017-08-22T10:17:11.109Z,5.10
2017-08-22T10:20:16.257Z,2.37
2017-08-22T10:22:43.700Z,5.57
2017-08-22T10:25:11.137Z,3.70
2017-08-22T10:27:38.569Z,3.13
2017-08-22T10:30:06.004Z,4.00
2017-08-22T10:32:33.432Z,4.03
2017-08-22T10:35:00.860Z,3.77
2017-08-22T10:37:28.291Z,3.27
2017-08-22T10:39:55.723Z,2.50
2017-08-22T10:42:23.158Z,2.63
2017-08-22T10:44:50.603Z,6.40
2017-08-22T10:47:18.024Z,2.73
2017-08-22T10:49:45.601Z,10.20
2017-08-22T10:52:13.038Z,4.57
2017-08-22T10:54:40.473Z,7.53
2017-08-22T10:57:07.908Z,3.00
2017-08-22T10:59:35.344Z,7.30
2017-08-22T11:02:02.776Z,2.40
2017-08-22T11:04:30.204Z,3.30
2017-08-22T11:06:57.646Z,3.00
2017-08-22T11:09:25.073Z,4.27
2017-08-22T11:11:52.506Z,4.77
2017-08-22T11:14:20.058Z,3.97
2017-08-22T11:16:47.485Z,5.27
2017-08-22T11:19:14.921Z,2.43
2017-08-22T11:21:42.357Z,2.43
2017-08-22T11:24:09.884Z,5.27
2017-08-22T11:26:37.322Z,6.73
2017-08-22T11:29:04.796Z,8.63
2017-08-22T11:31:32.225Z,5.30
2017-08-22T11:33:59.657Z,2.77
2017-08-22T11:36:27.170Z,4.67
2017-08-22T11:38:54.628Z,2.60
2017-08-22T11:41:22.071Z,3.23
2017-08-22T11:43:49.539Z,4.43
2017-08-22T11:46:16.983Z,2.90
2017-08-22T11:48:44.408Z,3.13
2017-08-22T11:51:11.841Z,5.50
2017-08-22T11:53:39.272Z,4.13
2017-08-22T11:56:06.691Z,5.13
2017-08-22T11:58:34.133Z,7.77
2017-08-22T12:01:01.592Z,6.03
2017-08-22T12:03:29.033Z,3.87
2017-08-22T12:05:56.452Z,7.83
2017-08-22T12:08:24.454Z,6.73
2017-08-22T12:10:51.880Z,8.50
2017-08-22T12:13:20.543Z,3.47
2017-08-22T12:15:47.968Z,3.67
2017-08-22T12:18:17.528Z,3.30
2017-08-22T12:20:44.957Z,3.93
2017-08-22T12:23:12.397Z,3.83
2017-08-22T12:25:39.834Z,3.10
2017-08-22T12:28:07.352Z,5.80
2017-08-22T12:30:34.780Z,4.90
2017-08-22T12:33:02.235Z,2.50
2017-08-22T12:35:29.668Z,3.43
2017-08-22T12:37:57.293Z,3.10
2017-08-22T12:40:24.708Z,4.20
2017-08-22T12:42:52.213Z,3.90
2017-08-22T12:45:19.784Z,3.90
2017-08-22T12:47:47.222Z,6.70
2017-08-22T12:50:14.649Z,4.30
2017-08-22T12:52:42.077Z,6.77
2017-08-22T12:55:14.614Z,4.30
2017-08-22T12:57:42.461Z,3.43
2017-08-22T13:00:09.896Z,3.80
2017-08-22T13:02:37.373Z,2.60
2017-08-22T13:05:04.812Z,5.63
2017-08-22T13:07:32.253Z,10.83
2017-08-22T13:09:59.700Z,4.20
2017-08-22T13:12:27.128Z,2.83
2017-08-22T13:14:55.331Z,4.90
2017-08-22T13:17:22.839Z,3.23
2017-08-22T13:19:50.273Z,1.93
2017-08-22T13:22:17.701Z,2.80
2017-08-22T13:24:45.135Z,2.03
2017-08-22T13:27:16.432Z,5.23
2017-08-22T13:29:43.881Z,4.57
2017-08-22T13:32:11.375Z,3.47
2017-08-22T13:34:38.807Z,2.70
2017-08-22T13:37:06.233Z,4.50
2017-08-22T13:39:35.695Z,3.27
2017-08-22T13:42:03.160Z,4.20
2017-08-22T13:44:30.576Z,5.53
2017-08-22T13:46:58.007Z,3.17
2017-08-22T13:49:25.437Z,3.93
2017-08-22T13:51:52.877Z,2.13
2017-08-22T13:54:20.310Z,3.67
2017-08-22T13:56:47.756Z,3.00
2017-08-22T13:59:15.190Z,3.87
2017-08-22T14:01:42.625Z,2.80
2017-08-22T14:04:10.050Z,3.00
2017-08-22T14:06:37.486Z,5.43
2017-08-22T14:09:04.971Z,3.20
2017-08-22T14:11:32.401Z,5.87
2017-08-22T14:13:59.885Z,4.00
2017-08-22T14:16:27.338Z,4.20
2017-08-22T14:18:54.778Z,4.40
2017-08-22T14:21:22.213Z,3.50
2017-08-22T14:23:49.654Z,3.17
2017-08-22T14:26:18.092Z,3.80
2017-08-22T14:28:45.520Z,3.07
2017-08-22T14:31:12.962Z,3.00
2017-08-22T14:33:41.378Z,3.27
2017-08-22T14:36:08.805Z,3.33
2017-08-22T14:38:36.239Z,4.27
2017-08-22T14:41:03.681Z,6.23
2017-08-22T14:43:31.159Z,3.93
2017-08-22T14:46:02.468Z,4.20
2017-08-22T14:48:29.908Z,2.20
2017-08-22T14:50:57.360Z,3.70
2017-08-22T14:53:31.244Z,6.10
2017-08-22T14:55:58.684Z,9.73
2017-08-22T14:58:26.112Z,5.17
2017-08-22T15:00:53.544Z,6.10
2017-08-22T15:03:20.985Z,3.30
2017-08-22T15:05:48.494Z,5.20
2017-08-22T15:08:15.926Z,2.27
2017-08-22T15:10:43.353Z,3.00
2017-08-22T15:13:10.838Z,5.70
2017-08-22T15:15:38.445Z,4.30
2017-08-22T15:18:05.869Z,2.80
2017-08-22T15:20:33.304Z,3.33
2017-08-22T15:23:00.793Z,4.20
2017-08-22T15:25:28.217Z,11.60
2017-08-22T15:27:55.686Z,11.50
2017-08-22T15:30:23.137Z,6.80
2017-08-22T15:32:50.572Z,3.50
2017-08-22T15:35:18.048Z,3.57
2017-08-22T15:37:45.521Z,7.40
2017-08-22T15:40:12.948Z,4.63
2017-08-22T15:42:40.392Z,3.80
2017-08-22T15:45:07.826Z,5.27
2017-08-22T15:47:35.264Z,11.10
2017-08-22T15:50:02.689Z,6.80
2017-08-22T15:52:30.134Z,4.70
2017-08-22T15:54:57.564Z,4.37
2017-08-22T15:57:24.992Z,6.30
2017-08-22T15:59:52.428Z,3.77
2017-08-22T16:02:19.904Z,4.03
2017-08-22T16:04:47.336Z,6.90
2017-08-22T16:07:14.785Z,6.83
2017-08-22T16:09:42.226Z,7.03
2017-08-22T16:12:09.661Z,11.87
2017-08-22T16:14:37.097Z,17.87
2017-08-22T16:17:04.525Z,8.90
2017-08-22T16:19:33.051Z,50.83
2017-08-22T16:22:00.489Z,13.53
2017-08-22T16:24:27.916Z,7.63
2017-08-22T16:26:55.352Z,6.50
2017-08-22T16:29:22.788Z,6.07
2017-08-22T16:31:50.230Z,8.10
2017-08-22T16:34:17.665Z,3.53
2017-08-22T16:36:45.100Z,6.70
2017-08-22T16:39:12.528Z,7.60
2017-08-22T16:41:39.961Z,6.67
2017-08-22T16:44:07.448Z,7.23
2017-08-22T16:46:34.877Z,4.03
2017-08-22T16:49:02.309Z,7.63
2017-08-22T16:51:29.800Z,4.20
2017-08-22T16:53:57.228Z,3.20
2017-08-22T16:56:24.653Z,9.23
2017-08-22T16:58:52.102Z,5.10
2017-08-22T17:01:19.545Z,4.30
2017-08-22T17:03:46.984Z,8.20
2017-08-22T17:06:14.423Z,9.23
2017-08-22T17:08:41.852Z,3.20
2017-08-22T17:11:09.289Z,6.30
2017-08-22T17:13:36.745Z,3.80
2017-08-22T17:16:04.179Z,4.27
2017-08-22T17:18:31.609Z,5.40
2017-08-22T17:20:59.057Z,5.63
2017-08-22T17:23:26.481Z,3.67
2017-08-22T17:25:53.918Z,3.43
2017-08-22T17:28:21.393Z,4.37
2017-08-22T17:30:48.861Z,3.97
2017-08-22T17:33:16.273Z,4.57
2017-08-22T17:35:43.710Z,3.83
2017-08-22T17:38:11.176Z,11.40
2017-08-22T17:40:38.604Z,7.90
2017-08-22T17:43:06.039Z,3.80
2017-08-22T17:45:33.478Z,4.13
2017-08-22T17:48:00.910Z,7.57
2017-08-22T17:50:28.355Z,5.03
2017-08-22T17:52:55.787Z,4.97
2017-08-22T17:55:23.224Z,8.70
2017-08-22T17:57:50.654Z,6.10
2017-08-22T18:00:18.117Z,4.60
2017-08-22T18:02:45.600Z,3.33
2017-08-22T18:05:13.029Z,5.83
2017-08-22T18:07:40.480Z,6.03
2017-08-22T18:10:07.916Z,5.17
2017-08-22T18:12:35.387Z,3.20
2017-08-22T18:15:02.827Z,3.43
2017-08-22T18:17:30.254Z,4.60
2017-08-22T18:19:57.676Z,5.20
2017-08-22T18:22:25.132Z,9.47
2017-08-22T18:24:52.560Z,3.57
2017-08-22T18:27:19.996Z,3.63
2017-08-22T18:29:47.421Z,5.30
2017-08-22T18:32:15.790Z,3.20
2017-08-22T18:34:43.217Z,5.30
2017-08-22T18:37:10.653Z,6.20
2017-08-22T18:39:38.085Z,11.13
2017-08-22T18:42:05.522Z,4.80
2017-08-22T18:44:32.961Z,8.83
2017-08-22T18:47:00.402Z,7.30
2017-08-22T18:49:27.841Z,7.87
2017-08-22T18:51:55.284Z,4.60
2017-08-22T18:54:22.722Z,6.17
2017-08-22T18:56:50.169Z,4.53
2017-08-22T18:59:17.596Z,4.90
2017-08-22T19:01:45.988Z,4.30
2017-08-22T19:04:14.229Z,3.87
2017-08-22T19:06:41.691Z,4.57
2017-08-22T19:09:09.133Z,3.30
2017-08-22T19:11:36.575Z,6.10
2017-08-22T19:14:04.041Z,5.83
2017-08-22T19:16:31.523Z,6.40
2017-08-22T19:18:59.122Z,5.37
2017-08-22T19:21:26.581Z,4.60
2017-08-22T19:23:54.030Z,7.47
2017-08-22T19:26:21.476Z,4.07
2017-08-22T19:28:49.865Z,3.83
2017-08-22T19:31:17.333Z,4.13
2017-08-22T19:33:44.762Z,6.00
2017-08-22T19:36:12.192Z,9.17
2017-08-22T19:38:39.637Z,4.90
2017-08-22T19:41:07.083Z,5.47
2017-08-22T19:43:34.512Z,4.13
2017-08-22T19:46:01.944Z,3.90
2017-08-22T19:48:29.604Z,4.67
2017-08-22T19:50:57.048Z,7.53
2017-08-22T19:53:24.496Z,3.97
2017-08-22T19:55:51.940Z,8.00
2017-08-22T19:58:23.080Z,6.13
2017-08-22T20:00:50.586Z,3.40
2017-08-22T20:03:18.016Z,3.93
2017-08-22T20:05:45.449Z,5.07
2017-08-22T20:08:12.894Z,8.83
2017-08-22T20:10:40.327Z,8.50
2017-08-22T20:13:07.753Z,5.40
2017-08-22T20:15:35.180Z,6.83
2017-08-22T20:18:02.617Z,4.97
2017-08-22T20:20:30.070Z,4.93
2017-08-22T20:22:57.492Z,9.07
2017-08-22T20:25:24.937Z,5.63
2017-08-22T20:27:52.378Z,6.00
2017-08-22T20:30:19.824Z,6.27
2017-08-22T20:32:47.245Z,6.60
2017-08-22T20:35:14.788Z,6.57
2017-08-22T20:37:42.222Z,9.33
2017-08-22T20:40:09.661Z,8.17
2017-08-22T20:42:37.092Z,9.57
2017-08-22T20:45:04.530Z,7.00
2017-08-22T20:47:31.956Z,8.70
2017-08-22T20:49:59.438Z,6.00
2017-08-22T20:52:26.873Z,6.10
2017-08-22T20:54:54.308Z,10.03
2017-08-22T20:57:21.744Z,13.37
2017-08-22T20:59:49.209Z,7.83
2017-08-22T21:02:16.640Z,11.40
2017-08-22T21:04:44.068Z,8.17
2017-08-22T21:07:11.534Z,5.90
2017-08-22T21:09:38.956Z,12.03
2017-08-22T21:12:06.392Z,5.80
2017-08-22T21:14:33.829Z,12.77
2017-08-22T21:17:01.263Z,7.90
2017-08-22T21:19:31.488Z,7.00
2017-08-22T21:21:58.939Z,7.83
2017-08-22T21:24:26.378Z,8.30
2017-08-22T21:26:53.808Z,7.60
2017-08-22T21:29:21.241Z,8.20
2017-08-22T21:31:48.675Z,8.00
2017-08-22T21:34:16.106Z,9.27
2017-08-22T21:36:43.541Z,6.77
2017-08-22T21:39:10.968Z,8.37
2017-08-22T21:41:38.430Z,5.93
2017-08-22T21:44:05.856Z,8.20
2017-08-22T21:46:33.298Z,7.13
2017-08-22T21:49:00.712Z,7.30
2017-08-22T21:51:28.156Z,9.03
2017-08-22T21:53:55.587Z,8.30
2017-08-22T21:56:23.020Z,8.30
2017-08-22T21:58:50.458Z,15.00
2017-08-22T22:01:17.904Z,10.93
2017-08-22T22:03:45.334Z,11.40
2017-08-22T22:06:12.768Z,9.40
2017-08-22T22:08:40.199Z,5.30
2017-08-22T22:11:07.636Z,8.50
2017-08-22T22:13:35.069Z,8.33
2017-08-22T22:16:02.504Z,8.97
2017-08-22T22:18:30.624Z,8.93
2017-08-22T22:20:58.057Z,12.90
2017-08-22T22:23:25.496Z,8.63
2017-08-22T22:25:52.925Z,6.90
2017-08-22T22:28:20.369Z,17.93
2017-08-22T22:30:47.798Z,8.50
2017-08-22T22:33:15.238Z,6.97
2017-08-22T22:35:42.670Z,13.40
2017-08-22T22:38:10.106Z,7.30
2017-08-22T22:40:37.538Z,7.47
2017-08-22T22:43:04.977Z,6.70
2017-08-22T22:45:32.404Z,8.20
2017-08-22T22:47:59.833Z,8.40
2017-08-22T22:50:27.260Z,9.17
2017-08-22T22:52:54.701Z,6.70
2017-08-22T22:55:22.126Z,6.53
2017-08-22T22:57:49.580Z,13.80
2017-08-22T23:00:17.009Z,10.73
2017-08-22T23:02:47.658Z,10.40
2017-08-22T23:05:15.093Z,10.13
2017-08-22T23:07:42.533Z,9.90
2017-08-22T23:10:09.962Z,9.50
2017-08-22T23:12:37.393Z,9.30
2017-08-22T23:15:04.824Z,9.07
2017-08-22T23:17:32.298Z,11.17
2017-08-22T23:19:59.728Z,10.60
2017-08-22T23:22:27.168Z,9.40
2017-08-22T23:24:54.594Z,10.03
2017-08-22T23:27:22.025Z,16.60
2017-08-22T23:29:50.221Z,10.03
2017-08-22T23:32:17.660Z,7.60
2017-08-22T23:34:45.092Z,9.20
2017-08-22T23:37:12.521Z,10.63
2017-08-22T23:39:39.967Z,12.50
2017-08-22T23:42:07.397Z,13.30
2017-08-22T23:44:34.834Z,15.70
2017-08-22T23:47:02.265Z,9.67
2017-08-22T23:49:29.708Z,16.83
2017-08-22T23:51:57.138Z,7.57
2017-08-22T23:54:24.568Z,11.90
2017-08-22T23:56:51.998Z,11.17
2017-08-22T23:59:19.432Z,9.40
